createdAt,value
2023-02-28T00:01:50.118Z,1.88
2023-02-28T00:04:19.203Z,1.42
2023-02-28T00:06:48.789Z,1.67
2023-02-28T00:09:17.466Z,2.28
2023-02-28T00:11:45.720Z,2.05
2023-02-28T00:14:14.643Z,1.73
2023-02-28T00:16:43.454Z,1.80
2023-02-28T00:19:15.007Z,1.75
2023-02-28T00:21:43.914Z,1.95
2023-02-28T00:24:13.514Z,1.73
2023-02-28T00:26:41.764Z,2.17
2023-02-28T00:29:10.417Z,1.85
2023-02-28T00:31:38.620Z,1.95
2023-02-28T00:34:06.889Z,1.70
2023-02-28T00:36:35.119Z,2.15
2023-02-28T00:39:06.750Z,1.73
2023-02-28T00:41:36.333Z,2.03
2023-02-28T00:44:06.657Z,1.98
2023-02-28T00:46:34.866Z,2.22
2023-02-28T00:49:03.133Z,1.48
2023-02-28T00:51:31.418Z,1.70
2023-02-28T00:53:59.912Z,1.70
2023-02-28T00:56:28.085Z,1.33
2023-02-28T00:58:58.054Z,2.28
2023-02-28T01:01:26.434Z,2.63
2023-02-28T01:03:54.756Z,1.98
2023-02-28T01:06:22.939Z,1.60
2023-02-28T01:08:51.426Z,1.13
2023-02-28T01:11:20.585Z,1.92
2023-02-28T01:13:48.905Z,1.80
2023-02-28T01:16:18.861Z,2.15
2023-02-28T01:18:47.821Z,2.10
2023-02-28T01:21:18.748Z,1.65
2023-02-28T01:23:47.529Z,1.48
2023-02-28T01:26:17.405Z,1.92
2023-02-28T01:28:46.118Z,2.05
2023-02-28T01:31:15.286Z,2.60
2023-02-28T01:33:45.950Z,1.77
2023-02-28T01:36:15.721Z,1.58
2023-02-28T01:38:44.956Z,1.42
2023-02-28T01:41:18.678Z,2.03
2023-02-28T01:44:05.213Z,1.40
2023-02-28T01:46:35.107Z,2.08
2023-02-28T01:49:09.272Z,1.55
2023-02-28T01:51:41.743Z,1.17
2023-02-28T01:54:15.494Z,1.77
2023-02-28T01:56:48.441Z,2.03
2023-02-28T01:59:21.423Z,1.33
2023-02-28T02:01:50.100Z,1.65
2023-02-28T02:04:23.606Z,2.60
2023-02-28T02:06:52.788Z,2.20
2023-02-28T02:09:21.043Z,2.08
2023-02-28T02:11:49.553Z,2.10
2023-02-28T02:14:39.769Z,1.17
2023-02-28T02:17:24.389Z,1.60
2023-02-28T02:20:28.291Z,1.35
2023-02-28T02:23:33.207Z,1.60
2023-02-28T02:26:13.309Z,1.67
2023-02-28T02:29:09.030Z,1.70
2023-02-28T02:32:02.051Z,1.33
2023-02-28T02:34:54.505Z,1.52
2023-02-28T02:37:32.203Z,1.80
2023-02-28T02:40:10.112Z,1.90
2023-02-28T02:42:44.729Z,1.25
2023-02-28T02:45:17.792Z,2.55
2023-02-28T02:47:47.194Z,1.50
2023-02-28T02:50:21.737Z,2.03
2023-02-28T02:52:55.398Z,3.13
2023-02-28T02:55:25.716Z,2.37
2023-02-28T02:57:57.947Z,2.22
2023-02-28T03:00:32.069Z,1.50
2023-02-28T03:03:01.080Z,2.45
2023-02-28T03:05:38.023Z,1.48
2023-02-28T03:08:07.408Z,1.10
2023-02-28T03:10:39.844Z,1.55
2023-02-28T03:13:38.900Z,1.83
2023-02-28T03:16:25.526Z,1.65
2023-02-28T03:19:02.108Z,1.90
2023-02-28T03:21:37.954Z,2.28
2023-02-28T03:24:11.651Z,2.08
2023-02-28T03:26:44.432Z,1.50
2023-02-28T03:29:18.607Z,2.67
2023-02-28T03:31:54.228Z,1.42
2023-02-28T03:34:28.074Z,2.53
2023-02-28T03:37:01.324Z,1.38
2023-02-28T03:39:36.065Z,1.73
2023-02-28T03:42:09.388Z,2.17
2023-02-28T03:44:43.178Z,1.48
2023-02-28T03:47:15.987Z,1.65
2023-02-28T03:49:49.823Z,1.63
2023-02-28T03:52:22.938Z,1.42
2023-02-28T03:54:56.473Z,2.65
2023-02-28T03:57:33.546Z,1.77
2023-02-28T04:00:06.917Z,1.63
2023-02-28T04:02:41.949Z,1.98
2023-02-28T04:05:10.928Z,3.85
2023-02-28T04:07:40.848Z,1.60
2023-02-28T04:10:10.747Z,2.22
2023-02-28T04:12:39.174Z,2.50
2023-02-28T04:15:08.996Z,1.95
2023-02-28T04:17:37.424Z,1.90
2023-02-28T04:20:10.574Z,2.03
2023-02-28T04:22:40.483Z,1.65
2023-02-28T04:25:09.743Z,2.10
2023-02-28T04:27:38.099Z,2.08
2023-02-28T04:30:07.560Z,1.90
2023-02-28T04:32:36.235Z,2.13
2023-02-28T04:35:04.887Z,2.25
2023-02-28T04:37:35.959Z,1.55
2023-02-28T04:40:06.335Z,1.60
2023-02-28T04:42:36.846Z,1.48
2023-02-28T04:45:05.651Z,2.17
2023-02-28T04:47:33.932Z,1.88
2023-02-28T04:50:02.272Z,2.10
2023-02-28T04:52:31.154Z,1.92
2023-02-28T04:54:59.768Z,2.08
2023-02-28T04:57:31.048Z,1.75
2023-02-28T04:59:59.387Z,1.92
2023-02-28T05:02:27.616Z,2.47
2023-02-28T05:04:55.948Z,0.98
2023-02-28T05:07:24.280Z,2.10
2023-02-28T05:09:52.534Z,2.28
2023-02-28T05:12:21.131Z,1.70
2023-02-28T05:14:50.864Z,1.83
2023-02-28T05:17:19.112Z,2.35
2023-02-28T05:19:47.336Z,2.63
2023-02-28T05:22:17.433Z,2.50
2023-02-28T05:24:46.431Z,1.38
2023-02-28T05:27:14.673Z,2.15
2023-02-28T05:29:44.362Z,2.08
2023-02-28T05:32:14.563Z,2.17
2023-02-28T05:34:43.511Z,2.17
2023-02-28T05:37:14.944Z,2.83
2023-02-28T05:39:43.839Z,2.28
2023-02-28T05:42:12.140Z,1.63
2023-02-28T05:44:40.794Z,2.35
2023-02-28T05:47:09.024Z,1.58
2023-02-28T05:49:38.992Z,2.30
2023-02-28T05:52:07.596Z,1.75
2023-02-28T05:54:36.412Z,2.75
2023-02-28T05:57:10.058Z,2.10
2023-02-28T05:59:41.041Z,2.42
2023-02-28T06:02:14.233Z,1.83
2023-02-28T06:04:44.267Z,2.00
2023-02-28T06:07:12.943Z,1.80
2023-02-28T06:09:41.292Z,2.13
2023-02-28T06:12:10.927Z,2.45
2023-02-28T06:14:39.591Z,1.88
2023-02-28T06:17:07.994Z,2.15
2023-02-28T06:19:38.000Z,2.10
2023-02-28T06:22:07.647Z,3.20
2023-02-28T06:24:35.878Z,3.08
2023-02-28T06:27:06.202Z,3.13
2023-02-28T06:29:35.308Z,2.13
2023-02-28T06:32:03.817Z,2.33
2023-02-28T06:34:32.186Z,2.72
2023-02-28T06:37:03.382Z,2.63
2023-02-28T06:39:33.615Z,2.20
2023-02-28T06:42:02.257Z,2.00
2023-02-28T06:44:36.119Z,2.55
2023-02-28T06:47:05.780Z,2.15
2023-02-28T06:49:35.429Z,3.67
2023-02-28T06:52:04.411Z,2.97
2023-02-28T06:54:34.071Z,2.78
2023-02-28T06:57:02.410Z,1.70
2023-02-28T06:59:31.242Z,2.25
2023-02-28T07:01:59.608Z,2.35
2023-02-28T07:04:28.844Z,3.03
2023-02-28T07:06:57.962Z,2.28
2023-02-28T07:09:31.219Z,2.30
2023-02-28T07:12:01.515Z,2.35
2023-02-28T07:14:29.952Z,2.33
2023-02-28T07:16:58.315Z,2.75
2023-02-28T07:19:27.027Z,2.78
2023-02-28T07:21:55.754Z,3.05
2023-02-28T07:24:26.868Z,3.05
2023-02-28T07:26:55.088Z,2.42
2023-02-28T07:29:24.893Z,1.45
2023-02-28T07:31:54.241Z,2.83
2023-02-28T07:34:23.106Z,2.22
2023-02-28T07:36:54.459Z,2.35
2023-02-28T07:39:24.098Z,2.20
2023-02-28T07:41:52.452Z,2.63
2023-02-28T07:44:26.255Z,2.72
2023-02-28T07:46:54.911Z,2.53
2023-02-28T07:49:23.298Z,2.60
2023-02-28T07:51:51.604Z,3.08
2023-02-28T07:54:20.091Z,2.72
2023-02-28T07:56:48.342Z,2.58
2023-02-28T07:59:16.637Z,1.70
2023-02-28T08:01:46.427Z,1.90
2023-02-28T08:04:17.864Z,2.20
2023-02-28T08:06:48.892Z,2.83
2023-02-28T08:09:17.362Z,2.85
2023-02-28T08:11:45.708Z,2.20
2023-02-28T08:14:13.994Z,2.85
2023-02-28T08:16:43.908Z,2.15
2023-02-28T08:19:13.941Z,1.92
2023-02-28T08:21:42.322Z,2.50
2023-02-28T08:24:10.978Z,2.58
2023-02-28T08:26:39.214Z,2.05
2023-02-28T08:29:07.624Z,2.20
2023-02-28T08:31:36.649Z,1.90
2023-02-28T08:34:07.842Z,1.98
2023-02-28T08:36:37.581Z,2.05
2023-02-28T08:39:06.916Z,1.70
2023-02-28T08:41:35.865Z,2.42
2023-02-28T08:44:04.151Z,2.05
2023-02-28T08:46:32.607Z,1.75
2023-02-28T08:49:02.723Z,1.85
2023-02-28T08:51:31.614Z,1.48
2023-02-28T08:54:02.977Z,2.05
2023-02-28T08:56:31.775Z,1.70
2023-02-28T08:59:00.160Z,1.90
2023-02-28T09:01:30.638Z,1.63
2023-02-28T09:04:00.129Z,2.03
2023-02-28T09:06:29.870Z,1.75
2023-02-28T09:09:00.786Z,2.17
2023-02-28T09:11:30.960Z,2.13
2023-02-28T09:14:01.363Z,2.15
2023-02-28T09:16:29.783Z,1.98
2023-02-28T09:18:58.155Z,1.98
2023-02-28T09:21:26.572Z,2.53
2023-02-28T09:23:55.223Z,1.67
2023-02-28T09:26:25.473Z,2.05
2023-02-28T09:28:56.414Z,1.92
2023-02-28T09:31:26.146Z,1.35
2023-02-28T09:33:56.716Z,1.88
2023-02-28T09:36:34.543Z,1.88
2023-02-28T09:39:10.441Z,2.63
2023-02-28T09:41:48.417Z,1.85
2023-02-28T09:44:21.998Z,1.95
2023-02-28T09:46:54.766Z,1.52
2023-02-28T09:49:27.586Z,1.88
2023-02-28T09:52:00.941Z,1.50
2023-02-28T09:54:33.100Z,1.77
2023-02-28T09:57:06.906Z,2.08
2023-02-28T09:59:50.028Z,2.05
2023-02-28T10:02:34.055Z,1.98
2023-02-28T10:05:07.154Z,2.42
2023-02-28T10:07:50.484Z,2.10
2023-02-28T10:10:26.501Z,1.80
2023-02-28T10:12:57.604Z,1.58
2023-02-28T10:15:32.490Z,2.05
2023-02-28T10:18:09.133Z,1.88
2023-02-28T10:20:41.428Z,2.80
2023-02-28T10:23:18.940Z,1.75
2023-02-28T10:25:52.160Z,1.75
2023-02-28T10:28:20.885Z,2.38
2023-02-28T10:30:52.957Z,1.80
2023-02-28T10:33:25.416Z,2.20
2023-02-28T10:35:54.557Z,2.05
2023-02-28T10:38:25.370Z,1.77
2023-02-28T10:41:04.950Z,2.60
2023-02-28T10:43:33.283Z,2.13
2023-02-28T10:46:06.076Z,1.92
2023-02-28T10:48:40.127Z,2.17
2023-02-28T10:51:10.408Z,2.25
2023-02-28T10:54:00.472Z,2.45
2023-02-28T10:56:30.739Z,2.25
2023-02-28T10:59:02.021Z,2.15
2023-02-28T11:01:43.232Z,2.55
2023-02-28T11:04:20.793Z,2.15
2023-02-28T11:06:49.953Z,2.55
2023-02-28T11:09:25.550Z,2.28
2023-02-28T11:14:24.489Z,1.88
2023-02-28T11:16:54.918Z,1.95
2023-02-28T11:19:27.905Z,2.42
2023-02-28T11:22:00.153Z,2.22
2023-02-28T11:24:32.089Z,2.25
2023-02-28T11:27:00.439Z,2.33
2023-02-28T11:29:30.729Z,2.28
2023-02-28T11:32:13.792Z,2.88
2023-02-28T11:34:44.232Z,2.60
2023-02-28T11:37:15.945Z,2.20
2023-02-28T11:39:44.720Z,2.65
2023-02-28T11:42:44.878Z,2.60
2023-02-28T11:45:25.961Z,2.83
2023-02-28T11:48:06.805Z,2.05
2023-02-28T11:50:49.633Z,2.65
2023-02-28T11:53:27.284Z,2.63
2023-02-28T11:56:05.030Z,2.35
2023-02-28T11:58:48.279Z,2.22
2023-02-28T12:01:40.890Z,2.85
2023-02-28T12:04:26.258Z,2.55
2023-02-28T12:07:03.674Z,2.55
2023-02-28T12:09:51.574Z,3.03
2023-02-28T12:12:34.836Z,2.88
2023-02-28T12:15:26.796Z,3.30
2023-02-28T12:18:10.117Z,2.38
2023-02-28T12:20:48.398Z,3.22
2023-02-28T12:23:53.871Z,2.83
2023-02-28T12:26:31.633Z,2.83
2023-02-28T12:29:04.353Z,2.67
2023-02-28T12:31:38.063Z,2.53
2023-02-28T12:34:11.941Z,3.33
2023-02-28T12:36:42.829Z,3.15
2023-02-28T12:39:16.972Z,3.22
2023-02-28T12:41:49.358Z,3.05
2023-02-28T12:44:22.651Z,3.53
2023-02-28T12:46:53.404Z,3.28
2023-02-28T12:49:26.589Z,3.67
2023-02-28T12:51:56.291Z,3.00
2023-02-28T12:54:31.394Z,3.53
2023-02-28T12:57:08.697Z,3.08
2023-02-28T12:59:40.599Z,3.15
2023-02-28T13:03:00.028Z,3.40
2023-02-28T13:05:53.088Z,3.50
2023-02-28T13:08:54.923Z,4.63
2023-02-28T13:11:28.770Z,3.47
2023-02-28T13:14:02.916Z,2.72
2023-02-28T13:16:53.961Z,3.45
2023-02-28T13:19:24.227Z,3.38
2023-02-28T13:21:53.665Z,3.10
2023-02-28T13:24:46.116Z,3.15
2023-02-28T13:27:40.488Z,3.67
2023-02-28T13:30:45.920Z,3.35
2023-02-28T13:33:29.777Z,3.45
2023-02-28T13:36:24.872Z,3.65
2023-02-28T13:38:54.888Z,3.50
2023-02-28T13:41:49.351Z,3.55
2023-02-28T13:44:20.157Z,3.78
2023-02-28T13:47:26.690Z,3.25
2023-02-28T13:49:55.257Z,3.20
2023-02-28T13:52:27.201Z,3.35
2023-02-28T13:55:21.904Z,3.30
2023-02-28T13:58:13.888Z,3.22
2023-02-28T14:01:02.028Z,3.60
2023-02-28T14:03:59.577Z,3.05
2023-02-28T14:06:31.585Z,3.88
2023-02-28T14:09:04.841Z,3.60
2023-02-28T14:11:35.009Z,3.33
2023-02-28T14:14:07.871Z,2.83
2023-02-28T14:16:43.432Z,3.40
2023-02-28T14:19:17.693Z,3.75
2023-02-28T14:22:06.137Z,3.70
2023-02-28T14:24:58.028Z,3.65
2023-02-28T14:27:38.502Z,3.20
2023-02-28T14:30:40.293Z,3.03
2023-02-28T14:33:27.578Z,3.63
2023-02-28T14:36:20.434Z,4.22
2023-02-28T14:38:54.182Z,3.35
2023-02-28T14:41:25.266Z,3.55
2023-02-28T14:43:56.663Z,3.20
2023-02-28T14:46:29.963Z,4.90
2023-02-28T14:49:00.543Z,3.83
2023-02-28T14:51:29.652Z,4.28
2023-02-28T14:54:01.746Z,4.05
2023-02-28T14:56:36.218Z,3.25
2023-02-28T14:59:04.969Z,3.72
2023-02-28T15:01:36.018Z,3.50
2023-02-28T15:04:07.977Z,4.13
2023-02-28T15:06:36.723Z,3.35
2023-02-28T15:09:19.435Z,3.83
2023-02-28T15:11:50.787Z,3.78
2023-02-28T15:14:23.950Z,3.58
2023-02-28T15:16:58.579Z,3.53
2023-02-28T15:19:30.689Z,3.25
2023-02-28T15:22:04.001Z,4.30
2023-02-28T15:24:39.020Z,3.72
2023-02-28T15:27:09.810Z,3.47
2023-02-28T15:29:48.540Z,4.30
2023-02-28T15:32:28.437Z,4.32
2023-02-28T15:34:58.987Z,3.70
2023-02-28T15:37:41.054Z,3.15
2023-02-28T15:40:25.784Z,3.50
2023-02-28T15:43:07.834Z,4.00
2023-02-28T15:45:42.161Z,4.30
2023-02-28T15:48:19.321Z,3.35
2023-02-28T15:50:50.947Z,4.25
2023-02-28T15:53:22.839Z,4.53
2023-02-28T15:56:00.624Z,4.20
2023-02-28T15:58:29.598Z,3.80
2023-02-28T16:01:10.448Z,4.53
2023-02-28T16:03:43.048Z,3.58
2023-02-28T16:06:38.875Z,3.33
2023-02-28T16:09:10.545Z,4.13
2023-02-28T16:11:42.851Z,4.20
2023-02-28T16:14:23.947Z,3.45
2023-02-28T16:16:54.813Z,3.20
2023-02-28T16:19:24.244Z,4.07
2023-02-28T16:21:53.889Z,3.17
2023-02-28T16:24:22.219Z,4.00
2023-02-28T16:26:54.389Z,4.82
2023-02-28T16:29:27.203Z,4.03
2023-02-28T16:31:55.921Z,5.43
2023-02-28T16:34:24.678Z,5.28
2023-02-28T16:36:54.388Z,4.85
2023-02-28T16:39:23.091Z,3.90
2023-02-28T16:41:52.842Z,5.57
2023-02-28T16:44:28.789Z,4.80
2023-02-28T16:46:57.352Z,4.60
2023-02-28T16:49:25.592Z,4.65
2023-02-28T16:51:55.531Z,4.20
2023-02-28T16:54:24.169Z,4.80
2023-02-28T16:56:52.498Z,3.95
2023-02-28T16:59:23.617Z,4.05
2023-02-28T17:01:51.968Z,5.63
2023-02-28T17:04:20.412Z,5.20
2023-02-28T17:06:48.691Z,4.82
2023-02-28T17:09:28.265Z,5.03
2023-02-28T17:12:00.286Z,5.75
2023-02-28T17:14:28.999Z,4.40
2023-02-28T17:16:59.883Z,5.45
2023-02-28T17:19:29.055Z,5.22
2023-02-28T17:21:57.668Z,5.90
2023-02-28T17:24:31.145Z,6.40
2023-02-28T17:27:00.614Z,6.00
2023-02-28T17:29:29.049Z,5.07
2023-02-28T17:32:00.700Z,5.15
2023-02-28T17:34:29.541Z,6.15
2023-02-28T17:36:58.198Z,5.65
2023-02-28T17:39:28.395Z,6.35
2023-02-28T17:41:57.868Z,4.97
2023-02-28T17:44:26.687Z,5.70
2023-02-28T17:46:56.945Z,5.63
2023-02-28T17:49:25.978Z,7.35
2023-02-28T17:51:54.203Z,7.00
2023-02-28T17:54:22.686Z,6.00
2023-02-28T17:56:52.336Z,6.00
2023-02-28T17:59:20.984Z,6.68
2023-02-28T18:01:49.245Z,5.65
2023-02-28T18:04:17.465Z,5.85
2023-02-28T18:06:48.761Z,6.65
2023-02-28T18:09:18.940Z,6.03
2023-02-28T18:11:49.094Z,6.53
2023-02-28T18:14:19.938Z,6.43
2023-02-28T18:16:48.461Z,6.10
2023-02-28T18:19:17.667Z,5.05
2023-02-28T18:21:47.524Z,6.57
2023-02-28T18:24:16.484Z,5.50
2023-02-28T18:26:45.483Z,5.05
2023-02-28T18:29:20.800Z,5.65
2023-02-28T18:31:49.992Z,6.30
2023-02-28T18:34:18.465Z,5.75
2023-02-28T18:36:47.250Z,5.28
2023-02-28T18:39:16.068Z,5.78
2023-02-28T18:41:44.501Z,5.63
2023-02-28T18:44:19.926Z,5.85
2023-02-28T18:46:51.125Z,5.60
2023-02-28T18:49:19.997Z,6.35
2023-02-28T18:51:49.049Z,7.45
2023-02-28T18:54:18.202Z,6.80
2023-02-28T18:56:46.729Z,7.35
2023-02-28T18:59:15.291Z,6.32
2023-02-28T19:01:44.555Z,6.68
2023-02-28T19:04:15.488Z,6.55
2023-02-28T19:06:43.855Z,7.47
2023-02-28T19:09:12.193Z,7.68
2023-02-28T19:11:40.800Z,8.93
2023-02-28T19:14:09.772Z,7.57
2023-02-28T19:16:38.244Z,6.95
2023-02-28T19:19:06.515Z,7.22
2023-02-28T19:21:37.045Z,7.35
2023-02-28T19:24:06.040Z,6.88
2023-02-28T19:26:34.402Z,6.90
2023-02-28T19:29:04.695Z,7.72
2023-02-28T19:31:33.637Z,6.32
2023-02-28T19:34:02.616Z,7.95
2023-02-28T19:36:30.979Z,8.32
2023-02-28T19:39:00.565Z,7.43
2023-02-28T19:41:29.088Z,8.05
2023-02-28T19:43:57.754Z,8.40
2023-02-28T19:46:26.216Z,8.07
2023-02-28T19:48:55.202Z,8.88
2023-02-28T19:51:24.317Z,8.82
2023-02-28T19:53:52.694Z,9.48
2023-02-28T19:56:22.278Z,8.60
2023-02-28T19:58:50.926Z,10.23
2023-02-28T20:01:20.597Z,6.75
2023-02-28T20:03:49.773Z,7.55
2023-02-28T20:06:18.383Z,8.00
2023-02-28T20:08:48.561Z,7.57
2023-02-28T20:11:18.280Z,7.60
2023-02-28T20:13:48.207Z,7.80
2023-02-28T20:16:17.389Z,7.18
2023-02-28T20:18:46.740Z,7.13
2023-02-28T20:21:16.608Z,11.85
2023-02-28T20:23:46.408Z,9.93
2023-02-28T20:26:15.675Z,9.15
2023-02-28T20:28:44.785Z,10.18
2023-02-28T20:31:15.648Z,7.68
2023-02-28T20:33:46.672Z,7.75
2023-02-28T20:36:15.923Z,8.93
2023-02-28T20:38:44.928Z,8.65
2023-02-28T20:41:13.848Z,7.28
2023-02-28T20:43:42.727Z,8.85
2023-02-28T20:46:11.652Z,7.35
2023-02-28T20:48:41.537Z,6.95
2023-02-28T20:51:09.810Z,6.53
2023-02-28T20:53:38.255Z,6.47
2023-02-28T20:56:09.058Z,7.47
2023-02-28T20:58:38.875Z,6.95
2023-02-28T21:01:12.735Z,7.75
2023-02-28T21:03:42.754Z,7.35
2023-02-28T21:06:12.384Z,8.02
2023-02-28T21:08:40.858Z,7.72
2023-02-28T21:11:10.880Z,8.82
2023-02-28T21:13:39.465Z,7.13
2023-02-28T21:16:09.505Z,7.65
2023-02-28T21:18:38.787Z,6.82
2023-02-28T21:21:11.761Z,8.35
2023-02-28T21:23:40.203Z,7.95
2023-02-28T21:26:09.971Z,7.60
2023-02-28T21:28:44.135Z,7.63
2023-02-28T21:31:15.993Z,7.45
2023-02-28T21:33:45.116Z,8.63
2023-02-28T21:36:17.776Z,7.22
2023-02-28T21:38:47.140Z,8.35
2023-02-28T21:41:17.129Z,7.18
2023-02-28T21:43:46.514Z,8.23
2023-02-28T21:46:17.850Z,8.82
2023-02-28T21:48:48.928Z,7.68
2023-02-28T21:51:20.452Z,7.18
2023-02-28T21:53:49.706Z,6.78
2023-02-28T21:56:20.997Z,7.80
2023-02-28T21:58:49.861Z,6.32
2023-02-28T22:01:20.908Z,8.30
2023-02-28T22:03:50.547Z,7.88
2023-02-28T22:06:22.476Z,6.78
2023-02-28T22:08:53.845Z,8.10
2023-02-28T22:11:23.873Z,7.78
2023-02-28T22:13:55.940Z,7.13
2023-02-28T22:16:26.635Z,7.43
2023-02-28T22:18:56.314Z,8.20
2023-02-28T22:21:26.791Z,6.78
2023-02-28T22:23:54.972Z,6.20
2023-02-28T22:26:24.780Z,7.50
2023-02-28T22:28:53.112Z,7.50
2023-02-28T22:31:24.972Z,8.20
2023-02-28T22:33:55.589Z,8.77
2023-02-28T22:36:25.493Z,5.78
2023-02-28T22:38:54.365Z,6.63
2023-02-28T22:41:24.428Z,6.57
2023-02-28T22:43:54.914Z,6.70
2023-02-28T22:46:24.963Z,7.30
2023-02-28T22:48:53.875Z,6.78
2023-02-28T22:51:25.329Z,6.15
2023-02-28T22:53:56.778Z,6.05
2023-02-28T22:56:27.487Z,6.97
2023-02-28T22:58:57.833Z,6.57
2023-02-28T23:01:28.391Z,5.85
2023-02-28T23:03:57.174Z,7.13
2023-02-28T23:06:32.636Z,7.53
2023-02-28T23:09:05.353Z,7.35
2023-02-28T23:11:35.549Z,6.75
2023-02-28T23:14:04.334Z,6.47
2023-02-28T23:16:34.716Z,6.07
2023-02-28T23:19:05.849Z,5.55
2023-02-28T23:21:34.644Z,7.03
2023-02-28T23:24:06.314Z,7.43
2023-02-28T23:26:34.573Z,5.50
2023-02-28T23:29:02.814Z,6.30
2023-02-28T23:31:31.603Z,7.03
2023-02-28T23:34:00.689Z,6.55
2023-02-28T23:36:30.140Z,7.15
2023-02-28T23:38:58.653Z,6.80
2023-02-28T23:41:28.328Z,7.35
2023-02-28T23:43:56.794Z,7.50
2023-02-28T23:46:25.093Z,7.10
2023-02-28T23:48:53.257Z,5.97
2023-02-28T23:51:22.926Z,6.57
2023-02-28T23:53:53.097Z,7.38
2023-02-28T23:56:23.608Z,7.28
2023-02-28T23:58:53.404Z,6.15
